Eddystone, Pennsylvania
Current Conditions -  °F | °C
As of 11:54 PM on Friday 28 Nov 2014 (Local Time) from KPHL Reporting Station
Broken Clouds Broken Clouds  
Wind Chill: 30°   Ceiling: 22000
Heat Index: 30°   Visibility: 10mi
Dew Point: 16°   Wind: 3mph
Humidity: 56%   Direction: 290°WNW
Pressure: 30.3"   Gusts: NA
Location:  39.8649°N, 75.3407°W
Report Text: KPHL 290454Z 29003KT 10SM FEW140 BKN220 M01/M09 A3030 RMK AO2 SLP260 T10111089 400391022 $
Loading
Personal Weather Stations






























Interactive Weather Map New forecast layout! Learn more

10-Day Weather Forecast

Advertisements
Track Severe Weather on mobile